createdAt,value
2019-03-20T00:00:56.612Z,9.00
2019-03-20T00:05:00.819Z,10.97
2019-03-20T00:09:07.140Z,12.10
2019-03-20T00:13:11.371Z,12.90
2019-03-20T00:17:15.611Z,10.43
2019-03-20T00:21:19.811Z,9.70
2019-03-20T00:25:24.027Z,9.23
2019-03-20T00:29:28.260Z,8.27
2019-03-20T00:33:32.474Z,6.00
2019-03-20T00:37:36.711Z,9.47
2019-03-20T00:41:40.919Z,9.23
2019-03-20T00:45:45.143Z,6.33
2019-03-20T00:49:49.370Z,10.57
2019-03-20T00:53:53.600Z,6.67
2019-03-20T00:57:57.847Z,9.47
2019-03-20T01:02:02.060Z,11.67
2019-03-20T01:06:06.303Z,11.37
2019-03-20T01:10:12.254Z,9.57
2019-03-20T01:14:16.538Z,8.10
2019-03-20T01:18:22.506Z,12.30
2019-03-20T01:22:26.626Z,12.30
2019-03-20T01:26:30.852Z,11.17
2019-03-20T01:30:36.459Z,10.20
2019-03-20T01:34:40.695Z,11.93
2019-03-20T01:38:44.934Z,8.70
2019-03-20T01:42:49.144Z,11.87
2019-03-20T01:46:53.387Z,11.90
2019-03-20T01:51:19.976Z,14.27
2019-03-20T01:55:24.215Z,16.10
2019-03-20T01:59:28.471Z,10.30
2019-03-20T02:03:32.711Z,11.47
2019-03-20T02:07:36.933Z,11.73
2019-03-20T02:11:41.147Z,8.90
2019-03-20T02:15:45.376Z,9.23
2019-03-20T02:19:49.617Z,11.23
2019-03-20T02:23:53.840Z,19.43
2019-03-20T02:27:58.071Z,12.23
2019-03-20T02:32:02.309Z,13.63
2019-03-20T02:36:06.531Z,13.77
2019-03-20T02:40:11.009Z,14.13
2019-03-20T02:44:15.224Z,8.00
2019-03-20T02:48:19.423Z,13.70
2019-03-20T02:52:23.640Z,13.57
2019-03-20T02:56:27.895Z,14.77
2019-03-20T03:00:32.123Z,13.43
2019-03-20T03:04:36.344Z,12.40
2019-03-20T03:08:40.556Z,12.33
2019-03-20T03:12:44.768Z,10.53
2019-03-20T03:16:48.996Z,11.63
2019-03-20T03:20:53.244Z,12.80
2019-03-20T03:24:57.469Z,15.80
2019-03-20T03:29:01.664Z,13.33
2019-03-20T03:33:05.884Z,15.30
2019-03-20T03:37:10.119Z,15.47
2019-03-20T03:41:14.336Z,19.57
2019-03-20T03:45:18.591Z,15.77
2019-03-20T03:49:22.805Z,16.60
2019-03-20T03:53:27.043Z,16.73
2019-03-20T03:57:31.397Z,21.83
2019-03-20T04:01:35.671Z,17.97
2019-03-20T04:05:39.917Z,22.13
2019-03-20T04:09:44.144Z,15.23
2019-03-20T04:13:48.348Z,19.93
2019-03-20T04:17:52.578Z,16.50
2019-03-20T04:21:56.820Z,26.83
2019-03-20T04:26:01.050Z,20.00
2019-03-20T04:30:05.969Z,24.53
2019-03-20T04:34:10.190Z,27.60
2019-03-20T04:38:14.411Z,21.97
2019-03-20T04:42:18.668Z,18.73
2019-03-20T04:46:22.875Z,25.90
2019-03-20T04:50:27.108Z,22.23
2019-03-20T04:54:31.317Z,25.83
2019-03-20T04:58:35.584Z,21.80
2019-03-20T05:02:39.817Z,24.40
2019-03-20T05:06:44.100Z,31.70
2019-03-20T05:10:48.287Z,28.23
2019-03-20T05:14:52.487Z,27.30
2019-03-20T05:18:56.710Z,28.10
2019-03-20T05:23:00.989Z,26.90
2019-03-20T05:27:05.287Z,26.70
2019-03-20T05:31:09.503Z,24.07
2019-03-20T05:35:13.705Z,24.57
2019-03-20T05:39:19.036Z,22.73
2019-03-20T05:43:23.269Z,22.90
2019-03-20T05:47:27.497Z,27.93
2019-03-20T05:51:31.726Z,25.00
2019-03-20T05:55:35.968Z,24.13
2019-03-20T05:59:40.183Z,26.53
2019-03-20T06:03:44.424Z,25.40
2019-03-20T06:07:48.649Z,23.73
2019-03-20T06:11:52.859Z,30.40
2019-03-20T06:15:57.097Z,29.13
2019-03-20T06:20:01.303Z,24.83
2019-03-20T06:24:05.546Z,30.30
2019-03-20T06:28:09.771Z,24.20
2019-03-20T06:32:14.059Z,30.47
2019-03-20T06:36:18.311Z,24.40
2019-03-20T06:40:22.505Z,26.50
2019-03-20T06:44:26.730Z,32.37
2019-03-20T06:48:30.947Z,31.00
2019-03-20T06:52:35.179Z,26.50
2019-03-20T06:56:39.425Z,28.30
2019-03-20T07:00:58.835Z,29.03
2019-03-20T07:05:49.459Z,27.13
2019-03-20T07:10:31.896Z,29.90
2019-03-20T07:14:36.123Z,26.10
2019-03-20T07:18:40.330Z,26.93
2019-03-20T07:22:44.637Z,35.73
2019-03-20T07:26:48.826Z,24.07
2019-03-20T07:30:53.039Z,24.80
2019-03-20T07:34:57.268Z,27.47
2019-03-20T07:39:01.492Z,28.63
2019-03-20T07:43:09.150Z,31.23
2019-03-20T07:47:11.688Z,21.13
2019-03-20T07:51:15.880Z,26.60
2019-03-20T07:55:20.112Z,21.63
2019-03-20T07:59:24.382Z,23.40
2019-03-20T08:03:28.607Z,24.10
2019-03-20T08:07:32.843Z,20.57
2019-03-20T08:11:37.049Z,22.30
2019-03-20T08:15:41.254Z,19.57
2019-03-20T08:19:45.575Z,20.03
2019-03-20T08:23:49.787Z,19.87
2019-03-20T08:27:54.216Z,24.07
2019-03-20T08:31:58.808Z,18.23
2019-03-20T08:36:04.020Z,20.17
2019-03-20T08:40:09.978Z,16.77
2019-03-20T08:44:14.323Z,18.60
2019-03-20T08:48:18.545Z,24.33
2019-03-20T08:52:22.740Z,18.37
2019-03-20T08:56:26.983Z,21.23
2019-03-20T09:00:31.247Z,15.90
2019-03-20T09:04:35.853Z,20.93
2019-03-20T09:08:40.207Z,15.57
2019-03-20T09:12:44.407Z,17.47
2019-03-20T09:16:48.635Z,19.87
2019-03-20T09:20:52.865Z,18.70
2019-03-20T09:24:57.169Z,14.83
2019-03-20T09:29:01.399Z,20.70
2019-03-20T09:33:05.764Z,20.43
2019-03-20T09:37:09.994Z,16.13
2019-03-20T09:41:14.226Z,19.33
2019-03-20T09:45:18.455Z,17.23
2019-03-20T09:49:22.671Z,18.73
2019-03-20T09:53:27.760Z,13.73
2019-03-20T09:57:32.051Z,15.13
2019-03-20T10:01:36.275Z,18.50
2019-03-20T10:05:40.495Z,18.27
2019-03-20T10:09:44.743Z,21.07
2019-03-20T10:13:49.011Z,15.53
2019-03-20T10:17:53.337Z,14.67
2019-03-20T10:21:57.601Z,18.10
2019-03-20T10:26:03.261Z,15.90
2019-03-20T10:30:13.227Z,13.63
2019-03-20T10:34:17.464Z,14.50
2019-03-20T10:38:21.672Z,29.03
2019-03-20T10:42:26.032Z,17.87
2019-03-20T10:46:30.266Z,16.27
2019-03-20T10:50:34.570Z,18.73
2019-03-20T10:54:38.799Z,15.63
2019-03-20T10:58:43.022Z,18.33
2019-03-20T11:02:47.515Z,17.60
2019-03-20T11:06:51.699Z,17.33
2019-03-20T11:10:55.924Z,16.50
2019-03-20T11:15:00.369Z,16.50
2019-03-20T11:19:04.622Z,14.47
2019-03-20T11:23:08.915Z,17.40
2019-03-20T11:27:13.150Z,17.13
2019-03-20T11:31:17.376Z,15.90
2019-03-20T11:35:21.607Z,15.87
2019-03-20T11:39:29.874Z,16.63
2019-03-20T11:43:31.960Z,16.33
2019-03-20T11:47:36.185Z,18.03
2019-03-20T11:51:40.428Z,18.57
2019-03-20T11:55:44.744Z,16.30
2019-03-20T11:59:48.983Z,16.23
2019-03-20T12:03:53.186Z,19.97
2019-03-20T12:07:57.425Z,17.17
2019-03-20T12:12:01.641Z,25.07
2019-03-20T12:16:05.895Z,14.90
2019-03-20T12:20:15.054Z,18.43
2019-03-20T12:24:19.314Z,13.13
2019-03-20T12:28:23.543Z,19.40
2019-03-20T12:32:27.766Z,13.83
2019-03-20T12:36:31.992Z,16.23
2019-03-20T12:40:36.317Z,17.23
2019-03-20T12:44:40.524Z,16.27
2019-03-20T12:48:44.743Z,13.40
2019-03-20T12:52:48.968Z,15.20
2019-03-20T12:56:53.220Z,13.63
2019-03-20T13:00:57.534Z,12.93
2019-03-20T13:05:01.812Z,14.10
2019-03-20T13:09:09.350Z,16.00
2019-03-20T13:13:13.606Z,12.53
2019-03-20T13:17:17.971Z,13.27
2019-03-20T13:21:22.185Z,10.63
2019-03-20T13:25:26.396Z,15.17
2019-03-20T13:29:30.622Z,17.33
2019-03-20T13:33:34.834Z,13.80
2019-03-20T13:37:39.055Z,15.53
2019-03-20T13:41:43.284Z,11.53
2019-03-20T13:45:47.493Z,14.53
2019-03-20T13:49:51.707Z,12.70
2019-03-20T13:53:55.926Z,12.30
2019-03-20T13:58:00.779Z,13.67
2019-03-20T14:02:04.991Z,10.63
2019-03-20T14:06:10.223Z,13.57
2019-03-20T14:10:24.502Z,12.93
2019-03-20T14:14:22.567Z,9.97
2019-03-20T14:18:26.824Z,15.17
2019-03-20T14:22:31.704Z,9.37
2019-03-20T14:26:36.427Z,11.00
2019-03-20T14:30:41.018Z,9.60
2019-03-20T14:34:45.431Z,11.20
2019-03-20T14:38:49.698Z,11.73
2019-03-20T14:42:54.226Z,11.83
2019-03-20T14:46:59.021Z,10.20
2019-03-20T14:51:04.123Z,12.63
2019-03-20T14:55:09.315Z,10.63
2019-03-20T14:59:13.955Z,13.60
2019-03-20T15:03:18.201Z,13.87
2019-03-20T15:07:22.478Z,13.37
2019-03-20T15:11:26.756Z,15.73
2019-03-20T15:15:57.792Z,15.40
2019-03-20T15:20:02.055Z,12.60
2019-03-20T15:24:06.427Z,14.30
2019-03-20T15:28:10.659Z,14.13
2019-03-20T15:32:14.860Z,15.53
2019-03-20T15:36:19.088Z,13.67
2019-03-20T15:40:23.323Z,14.47
2019-03-20T15:44:27.575Z,16.17
2019-03-20T15:48:31.817Z,12.17
2019-03-20T15:52:36.036Z,15.23
2019-03-20T15:56:40.291Z,13.60
2019-03-20T16:00:44.535Z,11.70
2019-03-20T16:04:48.789Z,17.87
2019-03-20T16:08:55.869Z,15.87
2019-03-20T16:12:59.025Z,11.93
2019-03-20T16:17:03.763Z,12.93
2019-03-20T16:21:08.014Z,16.57
2019-03-20T16:25:12.953Z,11.50
2019-03-20T16:29:17.438Z,11.23
2019-03-20T16:33:21.727Z,10.53
2019-03-20T16:37:25.959Z,9.37
2019-03-20T16:41:30.273Z,10.90
2019-03-20T16:45:34.516Z,12.50
2019-03-20T16:49:38.747Z,14.57
2019-03-20T16:53:42.991Z,12.67
2019-03-20T16:57:47.346Z,8.97
2019-03-20T17:01:51.581Z,10.87
2019-03-20T17:05:55.806Z,12.57
2019-03-20T17:10:00.053Z,11.70
2019-03-20T17:14:04.520Z,9.40
2019-03-20T17:18:09.258Z,8.73
2019-03-20T17:22:13.502Z,10.60
2019-03-20T17:26:17.732Z,10.10
2019-03-20T17:30:27.009Z,10.40
2019-03-20T17:34:31.232Z,11.67
2019-03-20T17:38:35.459Z,10.10
2019-03-20T17:42:39.700Z,10.50
2019-03-20T17:46:43.940Z,10.30
2019-03-20T17:50:48.180Z,12.73
2019-03-20T17:54:52.425Z,12.60
2019-03-20T17:58:56.835Z,12.17
2019-03-20T18:03:01.133Z,11.10
2019-03-20T18:07:06.460Z,12.30
2019-03-20T18:11:11.100Z,11.73
2019-03-20T18:15:15.793Z,13.60
2019-03-20T18:19:20.464Z,12.20
2019-03-20T18:23:24.714Z,12.43
2019-03-20T18:27:29.117Z,15.20
2019-03-20T18:31:33.307Z,10.93
2019-03-20T18:35:37.527Z,10.30
2019-03-20T18:39:41.727Z,10.40
2019-03-20T18:43:45.975Z,14.37
2019-03-20T18:47:50.288Z,12.40
2019-03-20T18:51:54.499Z,17.63
2019-03-20T18:55:58.759Z,17.70
2019-03-20T19:00:02.963Z,11.60
2019-03-20T19:04:07.186Z,10.17
2019-03-20T19:08:11.415Z,13.93
2019-03-20T19:12:15.755Z,12.37
2019-03-20T19:16:19.988Z,14.57
2019-03-20T19:20:24.193Z,11.80
2019-03-20T19:24:28.417Z,16.00
2019-03-20T19:28:32.648Z,17.63
2019-03-20T19:32:36.883Z,13.27
2019-03-20T19:36:41.118Z,16.90
2019-03-20T19:40:45.343Z,15.60
2019-03-20T19:44:49.731Z,13.40
2019-03-20T19:48:53.971Z,16.20
2019-03-20T19:52:58.199Z,15.33
2019-03-20T19:57:02.448Z,12.27
2019-03-20T20:01:06.647Z,15.13
2019-03-20T20:05:15.657Z,14.97
2019-03-20T20:09:16.980Z,14.47
2019-03-20T20:13:21.195Z,19.47
2019-03-20T20:17:25.428Z,17.60
2019-03-20T20:21:29.640Z,17.70
2019-03-20T20:25:33.886Z,16.50
2019-03-20T20:29:38.116Z,14.87
2019-03-20T20:33:42.367Z,15.23
2019-03-20T20:37:46.618Z,16.17
2019-03-20T20:41:50.823Z,21.83
2019-03-20T20:45:55.047Z,16.33
2019-03-20T20:49:59.295Z,15.93
2019-03-20T20:54:03.520Z,15.83
2019-03-20T20:58:09.806Z,17.03
2019-03-20T21:02:14.044Z,17.77
2019-03-20T21:06:18.472Z,20.60
2019-03-20T21:10:22.712Z,17.33
2019-03-20T21:14:27.448Z,16.90
2019-03-20T21:19:17.454Z,20.10
2019-03-20T21:24:07.740Z,16.83
2019-03-20T21:28:50.891Z,17.07
2019-03-20T21:32:56.327Z,16.97
2019-03-20T21:37:28.597Z,19.77
2019-03-20T21:42:35.982Z,22.40
2019-03-20T21:47:27.113Z,17.47
2019-03-20T21:51:32.038Z,23.90
2019-03-20T21:56:11.661Z,19.67
2019-03-20T22:01:02.780Z,20.20
2019-03-20T22:05:08.260Z,19.97
2019-03-20T22:09:26.095Z,19.93
2019-03-20T22:13:40.518Z,21.40
2019-03-20T22:18:36.199Z,21.57
2019-03-20T22:23:36.545Z,24.80
2019-03-20T22:28:16.737Z,20.37
2019-03-20T22:33:01.455Z,23.47
2019-03-20T22:37:07.545Z,25.87
2019-03-20T22:41:34.671Z,22.67
2019-03-20T22:46:19.249Z,27.97
2019-03-20T22:50:36.555Z,25.13
2019-03-20T22:55:19.982Z,23.83
2019-03-20T22:59:25.794Z,26.67
2019-03-20T23:03:38.638Z,26.87
2019-03-20T23:07:43.583Z,23.43
2019-03-20T23:11:48.318Z,23.73
2019-03-20T23:15:53.426Z,25.17
2019-03-20T23:19:59.061Z,28.37
2019-03-20T23:24:03.942Z,30.33
2019-03-20T23:28:08.671Z,27.60
2019-03-20T23:32:13.431Z,31.73
2019-03-20T23:36:18.194Z,29.10
2019-03-20T23:40:23.020Z,30.97
2019-03-20T23:44:27.773Z,29.23
2019-03-20T23:48:39.855Z,27.90
2019-03-20T23:52:44.614Z,31.87
2019-03-20T23:56:50.255Z,26.50
